Time;durP1;ratioP1;P1;durP2;ratioP2;P2;SDS_P1;SDS_P2;PMS_P1;PMS_P2;Temp;Humidity;BMP_temperature;BMP_pressure;BME280_temperature;BME280_humidity;BME280_pressure;Samples;Min_cycle;Max_cycle;Signal;HPM_P1;HPM_P2
2022/05/10 00:01:40;;;;;;;13.18;6.55;;;14.20;99.90;;;;;;4990783;28;20030;-69
2022/05/10 00:04:11;;;;;;;8.02;5.28;;;14.10;99.90;;;;;;4993860;28;20042;-70
2022/05/10 00:06:43;;;;;;;10.27;5.47;;;14.10;99.90;;;;;;4998814;28;20105;-68
2022/05/10 00:09:13;;;;;;;7.72;4.93;;;14.00;99.90;;;;;;5000239;28;20522;-67
2022/05/10 00:11:42;;;;;;;11.38;6.03;;;14.00;99.90;;;;;;4999280;28;20090;-68
2022/05/10 00:14:12;;;;;;;11.57;5.90;;;14.00;99.90;;;;;;5000323;28;20027;-70
2022/05/10 00:16:43;;;;;;;16.33;6.70;;;13.80;99.90;;;;;;4995941;28;20022;-68
2022/05/10 00:19:14;;;;;;;13.43;6.63;;;13.80;99.90;;;;;;5010276;28;20068;-68
2022/05/10 00:21:42;;;;;;;14.63;6.72;;;13.80;99.90;;;;;;4994029;28;20026;-70
2022/05/10 00:24:09;;;;;;;12.32;7.05;;;13.80;99.90;;;;;;4998240;28;20041;-69
2022/05/10 00:26:37;;;;;;;14.18;6.80;;;13.60;99.90;;;;;;5002250;28;20396;-71
2022/05/10 00:29:06;;;;;;;12.30;6.55;;;13.60;99.90;;;;;;5000765;28;20058;-64
2022/05/10 00:31:35;;;;;;;14.23;7.43;;;13.60;99.90;;;;;;5000837;28;20062;-67
2022/05/10 00:34:02;;;;;;;10.98;6.95;;;13.50;99.90;;;;;;4998601;28;20056;-70
2022/05/10 00:36:28;;;;;;;12.50;7.07;;;13.40;99.90;;;;;;4991346;28;20077;-71
2022/05/10 00:38:54;;;;;;;14.27;7.25;;;13.30;99.90;;;;;;4991109;28;20113;-70
2022/05/10 00:41:36;;;;;;;12.07;7.22;;;13.40;99.90;;;;;;4998827;28;20113;-69
2022/05/10 00:44:20;;;;;;;13.40;7.53;;;13.40;99.90;;;;;;4997666;28;20096;-69
2022/05/10 00:47:14;;;;;;;13.45;8.13;;;13.30;99.90;;;;;;4996237;28;20054;-71
2022/05/10 00:49:46;;;;;;;16.55;7.65;;;13.30;99.90;;;;;;4997098;28;20041;-65
2022/05/10 00:52:18;;;;;;;;;;;13.30;99.90;;;;;;5002903;28;20499;-69
2022/05/10 00:55:33;;;;;;;19.20;7.93;;;13.30;99.90;;;;;;4993794;28;20260;-68
2022/05/10 00:58:07;;;;;;;16.48;7.55;;;13.20;99.90;;;;;;4978839;28;20061;-69
2022/05/10 01:00:35;;;;;;;12.10;6.75;;;13.30;99.90;;;;;;5010767;28;20032;-67
2022/05/10 01:03:29;;;;;;;15.43;8.32;;;13.30;99.90;;;;;;5013981;28;20436;-66
2022/05/10 01:06:11;;;;;;;15.75;8.27;;;13.30;99.90;;;;;;5007720;28;20860;-67
2022/05/10 01:08:48;;;;;;;12.70;7.30;;;13.40;99.90;;;;;;4997827;28;20397;-67
2022/05/10 01:11:26;;;;;;;17.20;7.90;;;13.50;99.90;;;;;;5010064;28;20030;-66
2022/05/10 01:14:00;;;;;;;13.57;7.82;;;13.50;99.90;;;;;;4998934;28;20042;-68
2022/05/10 01:16:27;;;;;;;15.38;8.10;;;13.50;99.90;;;;;;4995525;28;20140;-67
2022/05/10 01:18:56;;;;;;;14.68;7.68;;;13.60;99.90;;;;;;4998306;28;20030;-68
2022/05/10 01:21:46;;;;;;;13.70;8.30;;;13.60;99.90;;;;;;4991726;28;20551;-70
2022/05/10 01:24:44;;;;;;;14.40;8.63;;;13.60;99.90;;;;;;4992326;28;20057;-70
2022/05/10 01:27:11;;;;;;;13.13;7.60;;;13.40;99.90;;;;;;4983383;28;20086;-69
2022/05/10 01:29:49;;;;;;;13.48;7.53;;;13.40;99.90;;;;;;5007977;28;20038;-66
2022/05/10 01:35:10;;;;;;;16.13;7.68;;;13.40;99.90;;;;;;4990630;28;20026;-67
2022/05/10 01:37:41;;;;;;;14.43;8.82;;;13.40;99.90;;;;;;4990782;28;20030;-69
2022/05/10 01:40:18;;;;;;;15.13;8.57;;;13.40;99.90;;;;;;4990916;28;20477;-67
2022/05/10 01:42:51;;;;;;;14.35;8.25;;;13.40;99.90;;;;;;4990641;28;20034;-71
2022/05/10 01:45:34;;;;;;;18.00;8.20;;;13.30;99.90;;;;;;5000555;28;20169;-71
2022/05/10 01:48:05;;;;;;;14.65;7.75;;;13.30;99.90;;;;;;5017064;28;20450;-70
2022/05/10 01:51:15;;;;;;;14.40;7.88;;;13.30;99.90;;;;;;5017213;28;20439;-67
2022/05/10 01:53:43;;;;;;;14.50;8.60;;;13.30;99.90;;;;;;5017325;28;20029;-70
2022/05/10 01:56:21;;;;;;;14.40;8.35;;;13.30;99.90;;;;;;5016385;28;20070;-69
2022/05/10 01:58:49;;;;;;;14.68;8.68;;;13.10;99.90;;;;;;5016188;28;20026;-70
2022/05/10 02:01:17;;;;;;;15.05;9.30;;;13.00;99.90;;;;;;5015339;28;20042;-70
2022/05/10 02:04:04;;;;;;;14.05;8.18;;;13.10;99.90;;;;;;5013232;28;20038;-64
2022/05/10 02:06:40;;;;;;;13.73;7.75;;;13.00;99.90;;;;;;5013342;28;20097;-66
2022/05/10 02:09:08;;;;;;;15.50;9.32;;;13.00;99.90;;;;;;5013652;28;20147;-68
2022/05/10 02:11:39;;;;;;;14.95;8.68;;;13.00;99.90;;;;;;5012932;28;20413;-69
2022/05/10 02:14:25;;;;;;;11.02;7.85;;;12.90;99.90;;;;;;5013196;28;20034;-68
2022/05/10 02:17:06;;;;;;;14.02;8.60;;;12.90;99.90;;;;;;5008988;28;20070;-70
2022/05/10 02:19:35;;;;;;;16.42;8.45;;;13.00;99.90;;;;;;4995040;28;20033;-71
2022/05/10 02:22:08;;;;;;;16.85;8.60;;;12.90;99.90;;;;;;4994097;28;20093;-67
2022/05/10 02:24:45;;;;;;;15.65;8.40;;;12.90;99.90;;;;;;4994966;28;20121;-67
2022/05/10 02:27:37;;;;;;;14.20;8.50;;;12.90;99.90;;;;;;5005560;28;20030;-71
2022/05/10 02:30:10;;;;;;;20.77;8.65;;;12.90;99.90;;;;;;5022778;28;20041;-67
2022/05/10 02:35:32;;;;;;;17.50;8.75;;;12.80;99.90;;;;;;5017944;28;20018;-70
2022/05/10 02:37:59;;;;;;;16.45;8.40;;;12.70;99.90;;;;;;5019456;28;20029;-68
2022/05/10 02:40:25;;;;;;;18.83;8.18;;;12.70;99.90;;;;;;5019070;28;20451;-67
2022/05/10 02:42:53;;;;;;;13.98;8.13;;;12.70;99.90;;;;;;5021982;28;20429;-70
2022/05/10 02:45:20;;;;;;;14.32;8.30;;;12.60;99.90;;;;;;5003295;28;20069;-70
2022/05/10 02:47:49;;;;;;;13.68;7.88;;;12.60;99.90;;;;;;5020895;28;20364;-70
2022/05/10 02:50:21;;;;;;;16.77;9.60;;;12.70;99.90;;;;;;5019242;28;20041;-67
2022/05/10 02:52:52;;;;;;;17.60;8.52;;;12.70;99.90;;;;;;5028947;28;20102;-69
2022/05/10 02:55:27;;;;;;;16.42;8.43;;;12.70;99.90;;;;;;5026636;28;20040;-72
2022/05/10 02:57:57;;;;;;;16.13;8.57;;;12.70;99.90;;;;;;5021070;28;20026;-69
2022/05/10 03:00:25;;;;;;;16.83;9.43;;;12.70;99.90;;;;;;5024729;28;20057;-69
2022/05/10 03:02:56;;;;;;;13.93;8.15;;;12.60;99.90;;;;;;5018657;28;20466;-68
2022/05/10 03:05:22;;;;;;;16.33;9.02;;;12.70;99.90;;;;;;5011163;28;20041;-71
2022/05/10 03:07:53;;;;;;;14.68;8.32;;;12.60;99.90;;;;;;5022426;28;20079;-71
2022/05/10 03:10:21;;;;;;;15.60;8.93;;;12.70;99.90;;;;;;5018942;28;20041;-66
2022/05/10 03:12:48;;;;;;;18.67;8.40;;;12.70;99.90;;;;;;5021845;28;20289;-69
2022/05/10 03:15:16;;;;;;;14.68;7.75;;;12.70;99.90;;;;;;5016772;28;20033;-67
2022/05/10 03:17:43;;;;;;;16.33;9.32;;;12.70;99.90;;;;;;5019742;28;20057;-70
2022/05/10 03:20:09;;;;;;;18.15;9.02;;;12.70;99.90;;;;;;4981988;28;20739;-68
2022/05/10 03:22:36;;;;;;;14.90;9.30;;;12.60;99.90;;;;;;5018531;28;20022;-69
2022/05/10 03:25:02;;;;;;;16.10;10.00;;;12.70;99.90;;;;;;5019565;28;20069;-70
2022/05/10 03:27:32;;;;;;;17.55;9.13;;;12.70;99.90;;;;;;5017050;28;20499;-67
2022/05/10 03:29:59;;;;;;;13.55;8.57;;;12.70;99.90;;;;;;5021501;28;20045;-67
2022/05/10 03:32:27;;;;;;;15.65;8.90;;;12.70;99.90;;;;;;5017804;28;20026;-67
2022/05/10 03:34:54;;;;;;;17.08;9.40;;;12.70;99.90;;;;;;5021568;28;20037;-69
2022/05/10 03:37:26;;;;;;;19.45;10.13;;;12.80;99.90;;;;;;5020597;28;20077;-68
2022/05/10 03:39:54;;;;;;;17.02;10.27;;;12.80;99.90;;;;;;5019660;28;20684;-70
2022/05/10 03:42:21;;;;;;;14.15;8.70;;;12.90;99.90;;;;;;5017648;28;20033;-70
2022/05/10 03:44:52;;;;;;;14.90;8.27;;;13.10;99.90;;;;;;5020630;28;20072;-70
2022/05/10 03:47:26;;;;;;;18.92;9.27;;;13.30;99.90;;;;;;5022015;28;20476;-71
2022/05/10 03:49:54;;;;;;;15.15;9.57;;;13.20;99.90;;;;;;5021536;28;20038;-72
2022/05/10 03:52:21;;;;;;;14.43;8.25;;;13.20;99.90;;;;;;5022201;28;20017;-73
2022/05/10 03:54:50;;;;;;;13.93;8.80;;;13.20;99.90;;;;;;5022860;28;20404;-70
2022/05/10 03:57:20;;;;;;;14.93;9.10;;;13.20;99.90;;;;;;5021284;28;20014;-71
2022/05/10 03:59:48;;;;;;;14.68;8.55;;;13.20;99.90;;;;;;5022417;28;20034;-72
2022/05/10 04:02:16;;;;;;;15.75;8.48;;;13.50;99.90;;;;;;5021510;28;20444;-70
2022/05/10 04:04:43;;;;;;;16.15;9.18;;;13.50;99.90;;;;;;5006342;28;20048;-71
2022/05/10 04:07:11;;;;;;;16.60;8.32;;;13.70;99.90;;;;;;5021884;28;20057;-70
2022/05/10 04:09:38;;;;;;;15.05;8.95;;;14.00;99.90;;;;;;5022705;28;20033;-68
2022/05/10 04:12:06;;;;;;;13.25;7.03;;;14.10;99.90;;;;;;5024662;28;20099;-69
2022/05/10 04:14:32;;;;;;;12.48;7.82;;;14.50;99.90;;;;;;5031900;28;20544;-68
2022/05/10 04:16:57;;;;;;;15.35;8.30;;;14.90;99.90;;;;;;5012886;28;20026;-72
2022/05/10 04:19:24;;;;;;;13.82;8.07;;;15.60;99.90;;;;;;5012405;28;20053;-71
2022/05/10 04:21:50;;;;;;;13.15;7.65;;;16.10;99.90;;;;;;5021069;28;20018;-71
2022/05/10 04:24:16;;;;;;;14.88;8.07;;;16.70;99.90;;;;;;5032131;28;20037;-72
2022/05/10 04:26:43;;;;;;;13.25;7.60;;;17.10;99.90;;;;;;5028454;28;20058;-70
2022/05/10 04:29:09;;;;;;;11.73;6.93;;;17.40;99.90;;;;;;5020941;28;20498;-68
2022/05/10 04:31:35;;;;;;;13.93;8.18;;;18.00;99.90;;;;;;5024942;28;20026;-70
2022/05/10 04:34:01;;;;;;;12.50;7.25;;;18.10;99.90;;;;;;5012752;28;20483;-71
2022/05/10 04:36:27;;;;;;;11.80;7.28;;;18.40;99.90;;;;;;5021477;28;20025;-71
2022/05/10 04:38:57;;;;;;;17.58;7.38;;;18.50;99.90;;;;;;5030438;28;20049;-68
2022/05/10 04:41:31;;;;;;;13.13;7.07;;;18.70;99.90;;;;;;5016017;28;20034;-70
2022/05/10 04:44:04;;;;;;;12.60;7.65;;;19.30;99.90;;;;;;5023335;28;20117;-70
2022/05/10 04:46:32;;;;;;;15.00;7.43;;;19.30;99.90;;;;;;5023411;28;20109;-70
2022/05/10 04:49:00;;;;;;;11.45;6.72;;;19.80;99.90;;;;;;5024645;28;20030;-68
2022/05/10 04:51:28;;;;;;;12.70;7.45;;;20.10;99.90;;;;;;5024045;28;20057;-69
2022/05/10 04:53:56;;;;;;;12.23;6.65;;;20.30;99.90;;;;;;5021761;28;20026;-70
2022/05/10 04:56:23;;;;;;;11.75;6.30;;;20.40;99.90;;;;;;5004572;28;20444;-67
2022/05/10 04:58:54;;;;;;;12.80;6.65;;;19.40;99.90;;;;;;5002705;28;20373;-68
2022/05/10 05:01:26;;;;;;;12.55;7.82;;;19.00;99.90;;;;;;5003093;28;20038;-68
2022/05/10 05:03:59;;;;;;;14.82;7.00;;;18.30;99.90;;;;;;5003147;28;20692;-67
2022/05/10 05:06:29;;;;;;;11.45;6.70;;;18.10;99.90;;;;;;5005322;28;20573;-70
2022/05/10 05:08:58;;;;;;;11.32;7.18;;;17.80;99.90;;;;;;5004395;28;20425;-69
2022/05/10 05:11:25;;;;;;;14.40;6.90;;;17.70;99.90;;;;;;5004613;28;20449;-72
2022/05/10 05:13:53;;;;;;;12.23;7.45;;;17.50;99.90;;;;;;5003506;28;20030;-73
2022/05/10 05:16:21;;;;;;;15.98;7.75;;;17.10;99.90;;;;;;5017678;28;20399;-73
2022/05/10 05:18:50;;;;;;;13.98;7.78;;;17.00;99.90;;;;;;5021643;28;20037;-73
2022/05/10 05:21:19;;;;;;;14.95;7.38;;;17.20;99.90;;;;;;5020421;28;20448;-71
2022/05/10 05:23:50;;;;;;;14.18;7.10;;;17.20;99.90;;;;;;5023114;28;20026;-71
2022/05/10 05:26:18;;;;;;;13.43;7.68;;;17.60;99.90;;;;;;5018392;28;20026;-71
2022/05/10 05:28:44;;;;;;;11.52;6.75;;;17.70;99.90;;;;;;5011479;28;20435;-72
2022/05/10 05:31:12;;;;;;;12.90;7.63;;;17.50;99.90;;;;;;5011572;28;20026;-71
2022/05/10 05:33:38;;;;;;;12.38;7.38;;;17.40;99.90;;;;;;5011800;28;20345;-72
2022/05/10 05:36:05;;;;;;;18.83;7.85;;;17.30;99.90;;;;;;5012005;28;20057;-71
2022/05/10 05:38:30;;;;;;;12.73;7.00;;;17.20;99.90;;;;;;5014315;28;20399;-71
2022/05/10 05:40:57;;;;;;;12.75;7.10;;;17.10;99.90;;;;;;5015575;28;20030;-72
2022/05/10 05:43:23;;;;;;;13.25;7.35;;;16.80;99.90;;;;;;5015590;28;20382;-70
2022/05/10 05:45:51;;;;;;;13.20;7.35;;;17.00;99.90;;;;;;5015423;28;20045;-71
2022/05/10 05:48:17;;;;;;;11.32;7.05;;;16.90;99.90;;;;;;5015698;28;20105;-72
2022/05/10 05:50:43;;;;;;;16.13;7.57;;;17.00;99.90;;;;;;5015676;28;20040;-71
2022/05/10 05:53:11;;;;;;;13.60;7.45;;;17.00;99.90;;;;;;5015661;28;20040;-71
2022/05/10 05:55:37;;;;;;;12.75;7.70;;;17.10;99.90;;;;;;5015179;28;20041;-71
2022/05/10 05:58:03;;;;;;;11.98;7.03;;;17.20;99.90;;;;;;5015760;28;20029;-71
2022/05/10 06:00:29;;;;;;;15.20;7.38;;;17.10;99.90;;;;;;5034987;28;20033;-71
2022/05/10 06:02:56;;;;;;;14.48;7.80;;;17.10;99.90;;;;;;5035226;28;20025;-70
2022/05/10 06:05:24;;;;;;;15.88;7.70;;;17.00;99.90;;;;;;5020460;28;20041;-71
2022/05/10 06:07:50;;;;;;;13.80;7.40;;;17.20;99.90;;;;;;5015767;28;20022;-72
2022/05/10 06:10:16;;;;;;;16.38;8.13;;;17.40;99.90;;;;;;5015129;28;20029;-72
2022/05/10 06:12:42;;;;;;;15.23;7.72;;;17.40;99.90;;;;;;5015924;28;20149;-71
2022/05/10 06:15:12;;;;;;;13.90;7.40;;;17.50;99.90;;;;;;5015175;28;20494;-72
2022/05/10 06:17:40;;;;;;;16.08;8.35;;;17.60;99.90;;;;;;5013680;28;20404;-68
2022/05/10 06:20:10;;;;;;;14.77;7.78;;;17.60;99.90;;;;;;5015377;28;20105;-72
2022/05/10 06:22:36;;;;;;;15.73;8.43;;;17.90;99.90;;;;;;5015279;28;20041;-69
2022/05/10 06:25:05;;;;;;;12.30;7.35;;;18.10;99.90;;;;;;5008779;28;20026;-70
2022/05/10 06:27:31;;;;;;;15.73;7.82;;;18.20;99.90;;;;;;5011701;28;20077;-68
2022/05/10 06:29:58;;;;;;;13.20;7.55;;;18.20;99.90;;;;;;5013084;28;20109;-69
2022/05/10 06:32:25;;;;;;;10.90;6.32;;;18.50;99.90;;;;;;5014826;28;20022;-68
2022/05/10 06:34:53;;;;;;;14.35;8.55;;;18.60;99.90;;;;;;5014330;28;20026;-68
2022/05/10 06:40:08;;;;;;;19.40;7.90;;;19.30;99.90;;;;;;5014287;28;20515;-67
2022/05/10 06:42:34;;;;;;;15.70;8.50;;;19.30;99.90;;;;;;5014959;28;20084;-69
2022/05/10 06:45:00;;;;;;;12.98;8.18;;;19.30;99.90;;;;;;5013805;28;20037;-69
2022/05/10 06:47:26;;;;;;;12.48;7.75;;;19.40;99.90;;;;;;5014095;28;20049;-72
2022/05/10 06:49:52;;;;;;;17.30;7.35;;;19.60;99.90;;;;;;5013969;28;20030;-71
2022/05/10 06:52:18;;;;;;;13.15;7.05;;;19.70;99.90;;;;;;5014355;28;20521;-70
2022/05/10 06:54:44;;;;;;;17.90;8.63;;;19.60;99.90;;;;;;5013518;28;20033;-71
2022/05/10 06:57:10;;;;;;;13.20;7.75;;;19.30;99.90;;;;;;5013967;28;20033;-71
2022/05/10 06:59:36;;;;;;;14.73;7.75;;;19.60;99.90;;;;;;5013716;28;20493;-68
2022/05/10 07:02:02;;;;;;;9.77;6.28;;;20.00;99.90;;;;;;5014098;28;20093;-70
2022/05/10 07:04:28;;;;;;;14.18;6.78;;;20.00;99.90;;;;;;5013315;28;20032;-71
2022/05/10 07:06:54;;;;;;;12.45;7.65;;;19.90;99.90;;;;;;5013808;28;20060;-72
2022/05/10 07:09:19;;;;;;;11.07;6.50;;;19.70;99.90;;;;;;5013639;28;20490;-72
2022/05/10 07:11:46;;;;;;;12.43;6.88;;;19.90;99.90;;;;;;5013534;28;20507;-71
2022/05/10 07:14:12;;;;;;;13.48;7.57;;;20.00;99.90;;;;;;5013440;28;20030;-72
2022/05/10 07:16:39;;;;;;;13.73;7.85;;;20.10;99.90;;;;;;5013371;28;20057;-69
2022/05/10 07:19:04;;;;;;;14.18;7.55;;;20.10;99.90;;;;;;5013836;28;20034;-71
2022/05/10 07:21:31;;;;;;;15.07;7.95;;;20.10;99.90;;;;;;5013458;28;20025;-67
2022/05/10 07:23:57;;;;;;;12.93;7.10;;;20.10;99.90;;;;;;5014038;28;20034;-69
2022/05/10 07:26:22;;;;;;;10.77;7.03;;;20.40;99.90;;;;;;5012750;28;20029;-67
2022/05/10 07:28:48;;;;;;;13.82;6.13;;;20.50;99.90;;;;;;5012633;28;20069;-69
2022/05/10 07:31:15;;;;;;;14.27;7.13;;;20.70;99.90;;;;;;5010378;28;20037;-70
2022/05/10 07:33:41;;;;;;;11.55;6.00;;;20.70;99.90;;;;;;5012178;28;20025;-66
2022/05/10 07:36:25;;;;;;;10.00;6.00;;;20.60;99.90;;;;;;5012930;28;20487;-69
2022/05/10 07:38:52;;;;;;;13.73;7.32;;;20.60;99.90;;;;;;5013178;28;20061;-70
2022/05/10 07:41:21;;;;;;;12.43;6.93;;;20.30;99.90;;;;;;5013121;28;20105;-70
2022/05/10 07:43:48;;;;;;;12.48;7.20;;;20.00;99.90;;;;;;5012673;28;20034;-69
2022/05/10 07:46:14;;;;;;;12.98;6.82;;;20.10;99.90;;;;;;5013020;28;20054;-70
2022/05/10 07:48:40;;;;;;;12.65;7.18;;;19.90;99.90;;;;;;5013242;28;20032;-69
2022/05/10 07:51:06;;;;;;;13.05;7.35;;;19.80;99.90;;;;;;5013713;28;20076;-71
2022/05/10 07:53:32;;;;;;;11.40;7.18;;;19.70;99.90;;;;;;5013121;28;20028;-69
2022/05/10 07:56:00;;;;;;;12.52;6.90;;;19.80;99.90;;;;;;5012344;28;20052;-70
2022/05/10 07:58:26;;;;;;;11.07;6.57;;;19.70;99.90;;;;;;5012824;28;20554;-65
2022/05/10 08:00:51;;;;;;;11.90;6.97;;;19.40;99.90;;;;;;5012203;28;20025;-70
2022/05/10 08:03:20;;;;;;;11.35;6.72;;;19.40;99.90;;;;;;5012689;28;20071;-70
2022/05/10 08:05:46;;;;;;;16.05;8.38;;;19.60;99.90;;;;;;5010576;28;20037;-71
2022/05/10 08:08:13;;;;;;;9.98;6.45;;;19.60;99.90;;;;;;5009687;28;20144;-71
2022/05/10 08:10:41;;;;;;;16.65;7.70;;;19.60;99.90;;;;;;5008293;28;20033;-71
2022/05/10 08:13:11;;;;;;;13.38;7.72;;;19.80;99.90;;;;;;5010332;28;20361;-71
2022/05/10 08:15:38;;;;;;;16.15;7.97;;;19.70;99.90;;;;;;5010781;28;20026;-72
2022/05/10 08:18:05;;;;;;;11.63;6.47;;;19.80;99.90;;;;;;5007320;28;20128;-70
2022/05/10 08:20:31;;;;;;;12.75;7.78;;;20.00;99.90;;;;;;5007390;28;20168;-70
2022/05/10 08:22:57;;;;;;;15.73;8.13;;;19.90;99.90;;;;;;5010217;28;20567;-70
2022/05/10 08:25:23;;;;;;;11.98;6.80;;;20.00;99.90;;;;;;5010951;28;20042;-69
2022/05/10 08:27:49;;;;;;;14.45;6.65;;;20.10;99.90;;;;;;5010710;28;20022;-70
2022/05/10 08:30:15;;;;;;;10.43;5.68;;;20.40;99.90;;;;;;5011301;28;20034;-71
2022/05/10 08:32:42;;;;;;;11.85;6.72;;;20.30;99.90;;;;;;5011667;28;20015;-71
2022/05/10 08:35:09;;;;;;;15.38;7.40;;;20.40;99.90;;;;;;5010185;28;20029;-71
2022/05/10 08:37:37;;;;;;;13.93;6.82;;;20.50;99.90;;;;;;5010927;28;20479;-69
2022/05/10 08:40:12;;;;;;;14.85;7.57;;;20.50;99.90;;;;;;5011306;28;20038;-70
2022/05/10 08:42:47;;;;;;;12.40;7.22;;;20.50;99.90;;;;;;5011513;28;20041;-69
2022/05/10 08:45:13;;;;;;;12.65;7.47;;;20.70;99.90;;;;;;5011003;28;20132;-71
2022/05/10 08:47:42;;;;;;;13.27;7.13;;;20.80;99.90;;;;;;4991523;28;20030;-71
2022/05/10 08:50:12;;;;;;;13.27;7.55;;;20.80;99.30;;;;;;4991416;28;20105;-71
2022/05/10 08:52:41;;;;;;;13.57;7.05;;;20.80;99.90;;;;;;4992576;28;20030;-71
2022/05/10 08:55:08;;;;;;;14.63;8.10;;;20.90;99.90;;;;;;4992261;28;20022;-70
2022/05/10 08:57:49;;;;;;;15.20;8.10;;;20.70;99.90;;;;;;4991847;28;20542;-70
2022/05/10 09:00:20;;;;;;;13.50;8.00;;;20.70;99.90;;;;;;4992833;28;20105;-70
2022/05/10 09:02:56;;;;;;;13.35;7.80;;;20.60;99.90;;;;;;4992854;28;20114;-71
2022/05/10 09:05:38;;;;;;;14.73;8.10;;;20.70;99.90;;;;;;4992670;28;20089;-71
2022/05/10 09:08:12;;;;;;;13.30;7.63;;;20.70;99.90;;;;;;4990932;28;20034;-70
2022/05/10 09:10:41;;;;;;;15.88;8.32;;;20.90;99.90;;;;;;4992404;28;20089;-65
2022/05/10 09:13:13;;;;;;;17.08;8.07;;;21.00;99.90;;;;;;4991812;28;20106;-71
2022/05/10 09:15:59;;;;;;;17.42;7.53;;;21.00;99.90;;;;;;4991826;28;20034;-70
2022/05/10 09:19:00;;;;;;;17.55;8.52;;;20.80;99.90;;;;;;4991983;28;20030;-72
2022/05/10 09:21:50;;;;;;;13.40;8.07;;;20.90;99.90;;;;;;4990117;28;20042;-71
2022/05/10 09:24:40;;;;;;;11.77;7.03;;;20.90;99.90;;;;;;4990631;28;20038;-70
2022/05/10 09:27:13;;;;;;;16.98;7.57;;;21.10;99.90;;;;;;4987853;28;20069;-72
2022/05/10 09:29:50;;;;;;;12.27;7.68;;;21.30;99.90;;;;;;4988737;28;20093;-72
2022/05/10 09:35:18;;;;;;;11.70;7.97;;;21.50;99.90;;;;;;4990615;28;20030;-71
2022/05/10 09:37:54;;;;;;;15.02;8.50;;;21.40;99.90;;;;;;4991651;28;20299;-71
2022/05/10 09:40:32;;;;;;;11.43;7.28;;;21.50;99.90;;;;;;4991771;28;20117;-70
2022/05/10 09:43:12;;;;;;;17.55;8.73;;;21.70;99.90;;;;;;4991487;28;20038;-70
2022/05/10 09:45:38;;;;;;;12.07;7.13;;;21.90;99.90;;;;;;4994140;28;20042;-67
2022/05/10 09:48:07;;;;;;;14.25;7.53;;;21.70;99.90;;;;;;5009973;28;20041;-69
2022/05/10 09:50:36;;;;;;;12.10;6.57;;;21.40;99.90;;;;;;5010520;28;20030;-70
2022/05/10 09:53:26;;;;;;;12.43;7.43;;;21.20;99.90;;;;;;5008947;28;20105;-68
2022/05/10 09:56:11;;;;;;;12.88;7.03;;;20.90;99.90;;;;;;4988608;28;20250;-69
2022/05/10 09:58:52;;;;;;;11.55;7.22;;;20.80;99.90;;;;;;4999897;28;20110;-71
2022/05/10 10:01:36;;;;;;;13.23;7.07;;;20.80;99.90;;;;;;5010905;28;20652;-70
2022/05/10 10:04:16;;;;;;;12.80;6.88;;;20.80;99.90;;;;;;5011226;28;20397;-70
2022/05/10 10:06:43;;;;;;;14.13;7.15;;;20.70;99.90;;;;;;5010294;28;20037;-70
2022/05/10 10:09:09;;;;;;;12.25;7.28;;;20.90;99.90;;;;;;5010188;28;20388;-71
2022/05/10 10:11:38;;;;;;;9.52;6.13;;;20.90;99.90;;;;;;5011092;28;20037;-72
2022/05/10 10:14:10;;;;;;;12.48;6.70;;;21.00;99.90;;;;;;5009898;28;20431;-71
2022/05/10 10:16:50;;;;;;;18.70;6.37;;;21.10;99.90;;;;;;5009842;28;20019;-72
2022/05/10 10:19:18;;;;;;;13.88;6.28;;;21.30;99.90;;;;;;5010470;28;20022;-71
2022/05/10 10:22:15;;;;;;;10.82;6.68;;;21.40;99.90;;;;;;5010586;28;20030;-71
2022/05/10 10:25:04;;;;;;;13.07;6.35;;;21.40;99.90;;;;;;5012488;28;20034;-70
2022/05/10 10:27:58;;;;;;;12.07;6.80;;;21.50;99.90;;;;;;5013457;28;20080;-66
2022/05/10 10:30:35;;;;;;;12.27;6.97;;;21.60;99.90;;;;;;5012456;28;20506;-70
2022/05/10 10:33:41;;;;;;;9.15;6.53;;;21.60;99.90;;;;;;5013466;28;20034;-69
2022/05/10 10:36:21;;;;;;;10.93;6.30;;;21.70;99.90;;;;;;5012984;28;20112;-68
2022/05/10 10:38:51;;;;;;;11.63;5.50;;;21.80;98.70;;;;;;5012313;28;20030;-70
2022/05/10 10:41:37;;;;;;;12.88;5.95;;;22.00;99.90;;;;;;5013760;28;20033;-70
2022/05/10 10:44:21;;;;;;;19.10;5.70;;;21.90;99.90;;;;;;5014306;28;20037;-70
2022/05/10 10:47:08;;;;;;;9.75;5.70;;;22.10;99.90;;;;;;5014552;28;20047;-71
2022/05/10 10:50:05;;;;;;;9.90;5.40;;;22.00;98.70;;;;;;5014432;28;20542;-71
2022/05/10 10:52:31;;;;;;;8.20;4.70;;;22.30;99.70;;;;;;5011346;28;20046;-71
2022/05/10 10:54:58;;;;;;;9.55;4.95;;;22.60;97.20;;;;;;5012130;28;20080;-71
2022/05/10 10:57:24;;;;;;;8.07;4.78;;;22.80;93.00;;;;;;5011617;28;20113;-70
2022/05/10 11:00:07;;;;;;;6.65;4.47;;;22.80;96.70;;;;;;5011598;28;20590;-71
2022/05/10 11:02:51;;;;;;;8.18;4.88;;;22.90;92.20;;;;;;5010871;28;20503;-71
2022/05/10 11:05:34;;;;;;;11.35;5.63;;;22.80;95.00;;;;;;5011819;28;20042;-70
2022/05/10 11:08:08;;;;;;;8.32;4.35;;;22.90;95.00;;;;;;5012138;28;20527;-71
2022/05/10 11:10:49;;;;;;;11.15;4.07;;;22.80;92.10;;;;;;5011323;28;20796;-70
2022/05/10 11:13:27;;;;;;;8.45;5.38;;;22.70;90.40;;;;;;5011274;28;20484;-70
2022/05/10 11:16:21;;;;;;;7.60;4.47;;;22.50;90.80;;;;;;5011538;28;20061;-71
2022/05/10 11:18:56;;;;;;;11.35;5.35;;;22.40;92.70;;;;;;5011281;28;20491;-71
2022/05/10 11:21:42;;;;;;;9.63;4.72;;;22.70;93.80;;;;;;5011386;28;20026;-71
2022/05/10 11:24:27;;;;;;;9.32;5.15;;;22.80;92.50;;;;;;5011484;28;20053;-70
2022/05/10 11:27:31;;;;;;;9.55;4.80;;;23.00;94.00;;;;;;5014990;28;20030;-70
2022/05/10 11:30:06;;;;;;;12.10;5.18;;;23.30;93.90;;;;;;4958777;28;20039;-69
2022/05/10 11:32:47;;;;;;;7.45;4.57;;;23.30;95.50;;;;;;4969528;28;20030;-70
2022/05/10 11:35:32;;;;;;;6.82;4.38;;;23.70;94.50;;;;;;4952071;28;20122;-67
2022/05/10 11:38:11;;;;;;;6.65;4.22;;;23.50;91.30;;;;;;4960557;28;20023;-70
2022/05/10 11:40:51;;;;;;;10.25;5.25;;;23.70;92.90;;;;;;4958575;28;20053;-70
2022/05/10 11:43:29;;;;;;;9.43;4.95;;;23.90;95.80;;;;;;4968844;28;20030;-70
2022/05/10 11:46:09;;;;;;;10.20;5.70;;;23.80;93.00;;;;;;4972110;28;20071;-68
2022/05/10 11:49:40;;;;;;;12.43;5.25;;;23.80;92.80;;;;;;4949596;29;20039;-70
2022/05/10 11:52:16;;;;;;;9.07;5.40;;;23.80;92.40;;;;;;4861822;29;20127;-67
2022/05/10 11:55:18;;;;;;;7.88;4.55;;;24.10;91.80;;;;;;4876490;29;20463;-70
2022/05/10 11:57:44;;;;;;;9.68;4.70;;;24.30;92.30;;;;;;4875991;29;20547;-70
2022/05/10 12:00:45;;;;;;;7.22;4.93;;;24.10;90.70;;;;;;4876535;29;20090;-67
2022/05/10 12:03:32;;;;;;;7.38;4.43;;;24.10;90.60;;;;;;4876410;29;20066;-69
2022/05/10 12:06:24;;;;;;;5.80;4.10;;;24.10;91.70;;;;;;4882856;29;20048;-71
2022/05/10 12:08:59;;;;;;;8.27;4.85;;;24.10;84.60;;;;;;4914360;29;20082;-69
2022/05/10 12:11:30;;;;;;;7.90;3.92;;;23.90;86.70;;;;;;4913228;29;20478;-69
2022/05/10 12:22:51;;;;;;;7.43;4.43;;;24.60;77.90;;;;;;4876298;29;20037;-70
2022/05/10 12:25:50;;;;;;;8.90;4.07;;;24.90;81.50;;;;;;4916607;28;20050;-69
2022/05/10 12:28:35;;;;;;;8.98;4.07;;;24.80;79.60;;;;;;5016623;28;20045;-62
2022/05/10 12:31:21;;;;;;;9.18;5.03;;;24.50;81.40;;;;;;5020938;28;20034;-69
2022/05/10 12:34:02;;;;;;;7.55;4.55;;;24.80;82.00;;;;;;5012793;28;20033;-71
2022/05/10 12:36:35;;;;;;;11.00;5.18;;;24.90;82.90;;;;;;5000876;28;20037;-68
2022/05/10 12:39:29;;;;;;;9.75;5.25;;;25.20;84.80;;;;;;4991155;28;20555;-71
2022/05/10 12:42:27;;;;;;;7.82;4.78;;;25.10;83.30;;;;;;4995116;28;20026;-64
2022/05/10 12:45:20;;;;;;;7.70;4.43;;;25.00;84.50;;;;;;4989689;28;20476;-69
2022/05/10 12:48:14;;;;;;;7.00;4.68;;;25.00;86.00;;;;;;5002049;28;20042;-71
2022/05/10 12:50:49;;;;;;;7.82;4.85;;;25.20;84.50;;;;;;5011038;28;20472;-69
2022/05/10 12:53:26;;;;;;;6.22;4.22;;;25.40;81.10;;;;;;5010605;28;20038;-69
2022/05/10 12:56:00;;;;;;;7.72;3.95;;;25.40;82.70;;;;;;5010934;28;20022;-71
2022/05/10 12:58:30;;;;;;;8.55;4.13;;;25.00;78.90;;;;;;4995159;28;20484;-70
2022/05/10 13:01:01;;;;;;;8.95;4.35;;;24.60;79.20;;;;;;5016762;28;20205;-67
2022/05/10 13:03:34;;;;;;;5.53;3.78;;;24.20;82.10;;;;;;4996644;28;20036;-69
2022/05/10 13:06:13;;;;;;;9.50;3.97;;;23.80;85.50;;;;;;4991516;28;20093;-64
2022/05/10 13:08:57;;;;;;;14.02;4.28;;;23.50;86.30;;;;;;4988464;28;20022;-71
2022/05/10 13:11:28;;;;;;;10.30;4.78;;;23.20;87.10;;;;;;4988991;28;20046;-65
2022/05/10 13:13:57;;;;;;;15.50;4.95;;;22.60;86.20;;;;;;4993758;28;20057;-67
2022/05/10 13:16:22;;;;;;;11.85;5.90;;;22.70;89.20;;;;;;5002562;28;20049;-69
2022/05/10 13:18:53;;;;;;;9.27;4.40;;;22.40;90.30;;;;;;4989578;28;20213;-70
2022/05/10 13:21:27;;;;;;;8.00;4.18;;;22.10;90.60;;;;;;5006605;28;20029;-65
2022/05/10 13:23:55;;;;;;;9.98;3.92;;;21.90;90.30;;;;;;5027617;28;20029;-70
2022/05/10 13:26:22;;;;;;;8.02;3.08;;;21.50;87.60;;;;;;5009204;28;20104;-63
2022/05/10 13:28:53;;;;;;;7.43;2.90;;;21.30;85.50;;;;;;5016708;28;20036;-70